Time,TemperatureF,DewpointF,PressureIn,WindDirection,WindDirectionDegrees,WindSpeedMPH,WindSpeedGustMPH,Humidity,HourlyPrecipIn,Conditions,Clouds,dailyrainin,SoftwareType,DateUTC
2013-04-24 00:14:00,43.5,19.6,29.89,ESE,112,5.3,-999.0,38,-99.99,,,0.00,Acu-Link.com,2013-04-24 06:14:00,
2013-04-24 00:29:00,42.1,21.8,29.90,West,270,0.0,-999.0,44,-99.99,,,0.00,Acu-Link.com,2013-04-24 06:29:00,
2013-04-24 00:44:00,40.8,22.2,29.91,South,180,1.7,-999.0,47,-99.99,,,0.00,Acu-Link.com,2013-04-24 06:44:00,
2013-04-24 01:00:00,39.7,22.6,29.91,NW,315,1.7,-999.0,50,-99.99,,,0.00,Acu-Link.com,2013-04-24 07:00:00,
2013-04-24 01:15:00,39.0,22.4,29.91,ENE,67,4.2,-999.0,51,-99.99,,,0.00,Acu-Link.com,2013-04-24 07:15:00,
2013-04-24 01:30:00,38.5,22.4,29.91,NE,45,1.7,-999.0,52,-99.99,,,0.00,Acu-Link.com,2013-04-24 07:30:00,
2013-04-24 01:45:00,37.2,21.7,29.91,ENE,67,1.7,-999.0,53,-99.99,,,0.00,Acu-Link.com,2013-04-24 07:45:00,
2013-04-24 02:01:00,36.5,21.5,29.90,West,270,0.0,-999.0,54,-99.99,,,0.00,Acu-Link.com,2013-04-24 08:01:00,
2013-04-24 02:16:00,35.6,21.0,29.90,South,180,0.0,-999.0,55,-99.99,,,0.00,Acu-Link.com,2013-04-24 08:16:00,
2013-04-24 02:31:00,34.9,20.8,29.90,SW,225,0.0,-999.0,56,-99.99,,,0.00,Acu-Link.com,2013-04-24 08:31:00,
2013-04-24 02:47:00,33.4,20.6,29.91,ESE,112,1.7,-999.0,59,-99.99,,,0.00,Acu-Link.com,2013-04-24 08:47:00,
2013-04-24 03:02:00,33.4,20.6,29.92,SW,225,0.0,-999.0,59,-99.99,,,0.00,Acu-Link.com,2013-04-24 09:02:00,
2013-04-24 03:17:00,33.3,20.9,29.90,East,90,0.0,-999.0,60,-99.99,,,0.00,Acu-Link.com,2013-04-24 09:17:00,
2013-04-24 03:33:00,32.9,20.2,29.90,NE,45,0.0,-999.0,59,-99.99,,,0.00,Acu-Link.com,2013-04-24 09:33:00,
2013-04-24 03:48:00,31.8,20.3,29.90,NNE,22,0.0,-999.0,62,-99.99,,,0.00,Acu-Link.com,2013-04-24 09:48:00,
2013-04-24 04:03:00,32.4,20.9,29.91,WNW,292,0.0,-999.0,62,-99.99,,,0.00,Acu-Link.com,2013-04-24 10:03:00,
2013-04-24 04:19:00,31.6,19.7,29.92,SSE,157,0.0,-999.0,61,-99.99,,,0.00,Acu-Link.com,2013-04-24 10:19:00,
2013-04-24 04:34:00,30.7,19.6,29.92,West,270,0.0,-999.0,63,-99.99,,,0.00,Acu-Link.com,2013-04-24 10:34:00,
2013-04-24 04:49:00,30.0,19.7,29.93,East,90,0.0,-999.0,65,-99.99,,,0.00,Acu-Link.com,2013-04-24 10:49:00,
2013-04-24 05:05:00,29.5,19.6,29.94,West,270,1.7,-999.0,66,-99.99,,,0.00,Acu-Link.com,2013-04-24 11:05:00,
2013-04-24 05:20:00,30.2,20.2,29.94,SW,225,0.0,-999.0,66,-99.99,,,0.00,Acu-Link.com,2013-04-24 11:20:00,
2013-04-24 05:35:00,29.8,19.9,29.94,NNW,337,0.0,-999.0,66,-99.99,,,0.00,Acu-Link.com,2013-04-24 11:35:00,
2013-04-24 05:50:00,30.0,20.0,29.93,NE,45,0.0,-999.0,66,-99.99,,,0.00,Acu-Link.com,2013-04-24 11:50:00,
2013-04-24 06:06:00,30.2,20.2,29.93,ESE,112,2.2,-999.0,66,-99.99,,,0.00,Acu-Link.com,2013-04-24 12:06:00,
2013-04-24 06:21:00,29.8,19.5,29.94,South,180,0.0,-999.0,65,-99.99,,,0.00,Acu-Link.com,2013-04-24 12:21:00,
2013-04-24 06:36:00,29.5,19.9,29.94,NE,45,0.0,-999.0,67,-99.99,,,0.00,Acu-Link.com,2013-04-24 12:36:00,
2013-04-24 06:52:00,30.0,19.7,29.95,SW,225,0.0,-999.0,65,-99.99,,,0.00,Acu-Link.com,2013-04-24 12:52:00,
2013-04-24 07:07:00,31.1,20.0,29.97,NE,45,0.0,-999.0,63,-99.99,,,0.00,Acu-Link.com,2013-04-24 13:07:00,
2013-04-24 07:22:00,32.7,20.4,29.98,NE,45,3.7,-999.0,60,-99.99,,,0.00,Acu-Link.com,2013-04-24 13:22:00,
2013-04-24 07:38:00,33.1,20.4,29.97,East,90,2.2,-999.0,59,-99.99,,,0.00,Acu-Link.com,2013-04-24 13:38:00,
2013-04-24 07:53:00,33.6,20.8,29.98,ESE,112,0.0,-999.0,59,-99.99,,,0.00,Acu-Link.com,2013-04-24 13:53:00,
2013-04-24 08:08:00,34.0,21.2,29.98,SE,135,0.0,-999.0,59,-99.99,,,0.00,Acu-Link.com,2013-04-24 14:08:00,
2013-04-24 08:24:00,35.6,21.5,29.99,SW,225,0.0,-999.0,56,-99.99,,,0.00,Acu-Link.com,2013-04-24 14:24:00,
2013-04-24 08:39:00,39.0,22.0,29.97,East,90,3.2,-999.0,50,-99.99,,,0.00,Acu-Link.com,2013-04-24 14:39:00,
2013-04-24 08:54:00,40.6,22.5,29.97,NE,45,0.0,-999.0,48,-99.99,,,0.00,Acu-Link.com,2013-04-24 14:54:00,
2013-04-24 09:24:00,47.1,24.0,29.98,West,270,1.7,-999.0,40,-99.99,,,0.00,Acu-Link.com,2013-04-24 15:24:00,
2013-04-24 09:40:00,49.8,24.6,29.96,NW,315,3.7,-999.0,37,-99.99,,,0.00,Acu-Link.com,2013-04-24 15:40:00,
2013-04-24 09:55:00,50.9,23.5,29.97,NNW,337,1.7,-999.0,34,-99.99,,,0.00,Acu-Link.com,2013-04-24 15:55:00,
2013-04-24 10:10:00,54.0,24.1,29.96,West,270,1.1,-999.0,31,-99.99,,,0.00,Acu-Link.com,2013-04-24 16:10:00,
2013-04-24 10:25:00,59.0,25.9,29.95,West,270,2.2,-999.0,28,-99.99,,,0.00,Acu-Link.com,2013-04-24 16:25:00,
2013-04-24 10:40:00,60.6,23.6,29.95,NNW,337,0.0,-999.0,24,-99.99,,,0.00,Acu-Link.com,2013-04-24 16:40:00,
2013-04-24 10:56:00,61.3,23.2,29.95,WSW,247,4.7,-999.0,23,-99.99,,,0.00,Acu-Link.com,2013-04-24 16:56:00,
2013-04-24 11:11:00,66.6,23.1,29.94,SSE,157,0.0,-999.0,19,-99.99,,,0.00,Acu-Link.com,2013-04-24 17:11:00,
2013-04-24 11:26:00,66.7,21.9,29.95,ENE,67,3.7,-999.0,18,-99.99,,,0.00,Acu-Link.com,2013-04-24 17:26:00,
2013-04-24 11:42:00,69.1,22.5,29.93,SE,135,1.7,-999.0,17,-99.99,,,0.00,Acu-Link.com,2013-04-24 17:42:00,
2013-04-24 11:57:00,71.2,-21.4,29.93,NNW,337,1.1,-999.0,2,-99.99,,,0.00,Acu-Link.com,2013-04-24 17:57:00,
2013-04-24 12:12:00,70.7,-34.4,29.92,North,0,2.2,-999.0,1,-99.99,,,0.00,Acu-Link.com,2013-04-24 18:12:00,
2013-04-24 12:28:00,70.9,-34.3,29.91,WSW,247,2.7,-999.0,1,-99.99,,,0.00,Acu-Link.com,2013-04-24 18:28:00,
2013-04-24 12:43:00,73.2,-32.9,29.89,NNE,22,2.7,-999.0,1,-99.99,,,0.00,Acu-Link.com,2013-04-24 18:43:00,
2013-04-24 12:58:00,74.1,-32.4,29.89,North,0,1.7,-999.0,1,-99.99,,,0.00,Acu-Link.com,2013-04-24 18:58:00,
2013-04-24 13:14:00,73.9,-32.5,29.90,WSW,247,1.7,-999.0,1,-99.99,,,0.00,Acu-Link.com,2013-04-24 19:14:00,
2013-04-24 13:29:00,73.6,-32.7,29.88,WNW,292,2.7,-999.0,1,-99.99,,,0.00,Acu-Link.com,2013-04-24 19:29:00,
2013-04-24 13:44:00,75.0,-31.8,29.86,SW,225,1.7,-999.0,1,-99.99,,,0.00,Acu-Link.com,2013-04-24 19:44:00,
2013-04-24 13:59:00,75.9,-31.3,29.86,SW,225,1.7,-999.0,1,-99.99,,,0.00,Acu-Link.com,2013-04-24 19:59:00,
2013-04-24 14:15:00,75.4,-31.6,29.85,NNW,337,2.2,-999.0,1,-99.99,,,0.00,Acu-Link.com,2013-04-24 20:15:00,
2013-04-24 14:30:00,75.6,-31.5,29.84,ESE,112,1.1,-999.0,1,-99.99,,,0.00,Acu-Link.com,2013-04-24 20:30:00,
2013-04-24 14:45:00,77.7,-30.2,29.83,SE,135,2.7,-999.0,1,-99.99,,,0.00,Acu-Link.com,2013-04-24 20:45:00,
2013-04-24 15:00:00,78.6,-29.7,29.83,NNE,22,2.7,-999.0,1,-99.99,,,0.00,Acu-Link.com,2013-04-24 21:00:00,
2013-04-24 15:15:00,75.7,-31.4,29.82,East,90,2.7,-999.0,1,-99.99,,,0.00,Acu-Link.com,2013-04-24 21:15:00,
2013-04-24 15:30:00,79.0,-29.4,29.81,NE,45,1.1,-999.0,1,-99.99,,,0.00,Acu-Link.com,2013-04-24 21:30:00,
2013-04-24 15:46:00,77.5,-30.3,29.81,SSE,157,1.1,-999.0,1,-99.99,,,0.00,Acu-Link.com,2013-04-24 21:46:00,
2013-04-24 16:01:00,79.0,-29.4,29.80,NNE,22,2.2,-999.0,1,-99.99,,,0.00,Acu-Link.com,2013-04-24 22:01:00,
2013-04-24 16:16:00,76.8,-30.7,29.79,NNE,22,1.7,-999.0,1,-99.99,,,0.00,Acu-Link.com,2013-04-24 22:16:00,
2013-04-24 16:31:00,75.9,-31.3,29.81,ESE,112,1.1,-999.0,1,-99.99,,,0.00,Acu-Link.com,2013-04-24 22:31:00,
2013-04-24 16:47:00,78.6,-29.7,29.79,NNE,22,1.1,-999.0,1,-99.99,,,0.00,Acu-Link.com,2013-04-24 22:47:00,
2013-04-24 17:02:00,78.1,-30.0,29.78,North,0,1.7,-999.0,1,-99.99,,,0.00,Acu-Link.com,2013-04-24 23:02:00,
2013-04-24 17:17:00,76.5,-30.9,29.79,ESE,112,0.0,-999.0,1,-99.99,,,0.00,Acu-Link.com,2013-04-24 23:17:00,
2013-04-24 17:33:00,77.2,-30.5,29.78,NNE,22,2.2,-999.0,1,-99.99,,,0.00,Acu-Link.com,2013-04-24 23:33:00,
2013-04-24 17:48:00,77.4,-30.4,29.79,SSE,157,2.2,-999.0,1,-99.99,,,0.00,Acu-Link.com,2013-04-24 23:48:00,
2013-04-24 18:03:00,78.3,-29.9,29.79,West,270,3.2,-999.0,1,-99.99,,,0.00,Acu-Link.com,2013-04-25 00:03:00,
2013-04-24 18:18:00,75.7,-31.4,29.78,SW,225,2.2,-999.0,1,-99.99,,,0.00,Acu-Link.com,2013-04-25 00:18:00,
2013-04-24 18:34:00,72.5,-33.3,29.80,ESE,112,0.0,-999.0,1,-99.99,,,0.00,Acu-Link.com,2013-04-25 00:34:00,
2013-04-24 18:49:00,70.9,23.9,29.79,WSW,247,2.2,-999.0,17,-99.99,,,0.00,Acu-Link.com,2013-04-25 00:49:00,
2013-04-24 19:04:00,69.3,24.0,29.79,ESE,112,0.0,-999.0,18,-99.99,,,0.00,Acu-Link.com,2013-04-25 01:04:00,
2013-04-24 19:20:00,68.0,26.6,29.79,SW,225,0.0,-999.0,21,-99.99,,,0.00,Acu-Link.com,2013-04-25 01:20:00,
2013-04-24 19:35:00,66.4,25.3,29.79,ESE,112,0.0,-999.0,21,-99.99,,,0.00,Acu-Link.com,2013-04-25 01:35:00,
2013-04-24 19:50:00,64.8,27.2,29.81,SW,225,0.0,-999.0,24,-99.99,,,0.00,Acu-Link.com,2013-04-25 01:50:00,
2013-04-24 20:05:00,64.2,26.7,29.82,West,270,0.0,-999.0,24,-99.99,,,0.00,Acu-Link.com,2013-04-25 02:05:00,
2013-04-24 20:20:00,63.5,28.0,29.82,ESE,112,0.0,-999.0,26,-99.99,,,0.00,Acu-Link.com,2013-04-25 02:20:00,
2013-04-24 20:36:00,62.6,28.2,29.81,East,90,0.0,-999.0,27,-99.99,,,0.00,Acu-Link.com,2013-04-25 02:36:00,
2013-04-24 20:51:00,61.7,29.1,29.82,SW,225,0.0,-999.0,29,-99.99,,,0.00,Acu-Link.com,2013-04-25 02:51:00,
2013-04-24 21:06:00,61.3,28.8,29.83,South,180,0.0,-999.0,29,-99.99,,,0.00,Acu-Link.com,2013-04-25 03:06:00,
2013-04-24 21:22:00,60.8,29.2,29.83,South,180,0.0,-999.0,30,-99.99,,,0.00,Acu-Link.com,2013-04-25 03:22:00,
2013-04-24 21:37:00,60.3,28.7,29.83,SSW,202,0.0,-999.0,30,-99.99,,,0.00,Acu-Link.com,2013-04-25 03:37:00,
2013-04-24 21:52:00,59.7,29.8,29.84,South,180,0.0,-999.0,32,-99.99,,,0.00,Acu-Link.com,2013-04-25 03:52:00,
2013-04-24 22:08:00,59.0,29.2,29.85,SSW,202,0.0,-999.0,32,-99.99,,,0.00,Acu-Link.com,2013-04-25 04:08:00,
2013-04-24 22:23:00,58.1,29.2,29.84,WSW,247,0.0,-999.0,33,-99.99,,,0.00,Acu-Link.com,2013-04-25 04:23:00,
2013-04-24 22:38:00,56.7,28.7,29.86,ESE,112,0.0,-999.0,34,-99.99,,,0.00,Acu-Link.com,2013-04-25 04:38:00,
2013-04-24 22:54:00,55.4,28.2,29.85,South,180,0.0,-999.0,35,-99.99,,,0.00,Acu-Link.com,2013-04-25 04:54:00,
2013-04-24 23:09:00,54.5,26.7,29.85,SSW,202,0.0,-999.0,34,-99.99,,,0.00,Acu-Link.com,2013-04-25 05:09:00,
2013-04-24 23:24:00,54.0,26.3,29.84,ESE,112,0.0,-999.0,34,-99.99,,,0.00,Acu-Link.com,2013-04-25 05:24:00,
2013-04-24 23:40:00,53.8,27.5,29.84,South,180,0.0,-999.0,36,-99.99,,,0.00,Acu-Link.com,2013-04-25 05:40:00,
2013-04-24 23:55:00,53.2,28.3,29.83,ESE,112,0.0,-999.0,38,-99.99,,,0.00,Acu-Link.com,2013-04-25 05:55:00,